Bookmark and Share
Track history (hours):
 

Trans Exeter

Last reported at 2014-Apr-18 17:34 UTC. Time now 2014-Apr-18 18:11 UTC.
Position N 36°09' W 005°23'.

Length 118 m; draft 6.5 m.

Type: Ship (hazmat cat A). MMSI: 248908000.

NotesDate/timePositionNaut miles runAvg speedWind from/ knotsBaromVisibWave heightAir tempDewpointWater temp
2014-Apr-18 17:34N 36°09' W 005°23'6 5.9
2014-Apr-18 16:33N 36°05' W 005°17'1212.3
2014-Apr-18 15:33N 36°07' W 005°02'20813.4
2014-Apr-18 00:05N 36°43' W 000°48'814.1
2014-Apr-17 23:31N 36°46' W 000°38'8814.0
2014-Apr-17 17:13N 37°08' E 001°08'914.3
2014-Apr-17 16:33N 37°10' E 001°20'3413.7
2014-Apr-17 14:06N 37°19' E 002°00'32513.7
2014-Apr-16 14:23N 38°42' E 008°40'1213.7
2014-Apr-16 13:33N 38°46' E 008°53'1413.9
2014-Apr-16 12:33N 38°57' E 009°04'9 8.6
2014-Apr-16 11:32N 39°06' E 009°02'0 0.1
2014-Apr-16 10:33N 39°06' E 009°02'0 0.0
2014-Apr-16 09:33N 39°06' E 009°02'0 0.0
2014-Apr-16 08:33N 39°06' E 009°02'0 0.0
2014-Apr-16 07:33N 39°06' E 009°02'0 0.0
2014-Apr-16 06:33N 39°06' E 009°02'0 0.0
2014-Apr-16 05:33N 39°06' E 009°02'0 0.0
2014-Apr-16 04:33N 39°06' E 009°02'0 0.0
2014-Apr-16 03:33N 39°06' E 009°02'0 0.0
2014-Apr-16 02:33N 39°06' E 009°02'0 0.0
2014-Apr-16 01:33N 39°06' E 009°02'0 0.0
2014-Apr-16 00:33N 39°06' E 009°02'0 0.0
2014-Apr-15 23:33N 39°06' E 009°02'0 0.0
2014-Apr-15 22:33N 39°06' E 009°02'0 0.0
2014-Apr-15 21:33N 39°06' E 009°02'0 0.0
2014-Apr-15 20:33N 39°06' E 009°02'0 0.1
2014-Apr-15 19:34N 39°06' E 009°02'6 5.7
2014-Apr-15 18:33N 39°04' E 009°09'5 5.3
2014-Apr-15 17:33N 39°01' E 009°14'4 3.7
2014-Apr-15 16:33N 38°59' E 009°18'1111.4
2014-Apr-15 15:34N 38°52' E 009°30'22912.7
2014-Apr-14 21:33N 36°59' E 013°43'1413.8
2014-Apr-14 20:33N 36°52' E 013°58'1413.7
2014-Apr-14 19:34N 36°46' E 014°13'1313.5
2014-Apr-14 18:34N 36°40' E 014°28'45913.0
2014-Apr-13 07:22N 37°27' E 023°60'1214.6
2014-Apr-13 06:32N 37°37' E 024°08'  
2014-Apr-09 21:33N 40°29' E 026°54'1612.0
2014-Apr-09 20:12N 40°19' E 026°36'20812.3
2014-Apr-09 03:15N 37°38' E 023°47'912.8
2014-Apr-09 02:33N 37°45' E 023°39'1211.8
2014-Apr-09 01:33N 37°56' E 023°35'1 1.1
2014-Apr-09 00:33N 37°57' E 023°35'0 0.0
2014-Apr-08 23:29N 37°57' E 023°35'0 0.0
2014-Apr-08 22:33N 37°57' E 023°35'0 0.0
2014-Apr-08 21:33N 37°57' E 023°35'0 0.0
2014-Apr-08 20:32N 37°57' E 023°35'0 0.0
2014-Apr-08 19:33N 37°57' E 023°35'0 0.0
2014-Apr-08 18:33N 37°57' E 023°35'  

Dump ship's entire track history

sailing weather and tide predictions

Trans Exeter — 9HA2572 — position and weather